Current Weather

Cranfield

Cranfield, United Kingdom (EGTC)

Report from: Friday, February 23, 2024 6:20 PM GMT
Current time: Friday, February 23, 2024 7:28 PM GMT

Nearby weather – Weather history – Daily summaries
Weather forecast

Present weatherRain showers
Temperature4.0°C (39.2°F)
Wind chill2.1°C (35.9°F)
Dew point3.0°C (37.4°F)
Winds 4 kts (2.1 m/s, 4.6 mph) South (190°)
Visibility6.2 mi. (10 km)
Clouds Scattered clouds 1,900 ft. (579 m)
Altimeter29.15 in.Hg (987 mB)
Relative humidity93 %
Density altitude-317 ft. (-97 m)
Flight conditions Visual Meteorological Conditions
Raw dataEGTC 231820Z 19004KT 9999 SHRA SCT019 04/03 Q0987
An error has occurred. This application may no longer respond until reloaded. Reload 🗙